Little River, Alabama
Current Conditions -  °F | °C
As of 8:53 AM on Monday 22 Dec 2014 (Local Time) from KGZH Reporting Station
Overcast Overcast  
Wind Chill: 55°   Ceiling: 300
Heat Index: 55°   Visibility: 10mi
Dew Point: 53°   Wind: 7mph
Humidity: 93%   Direction: 120°ESE
Pressure: 29.93"   Gusts: NA
Location:  31.26°N, 87.72°W
Report Text: KGZH 221453Z AUTO 12006KT 10SM OVC003 13/12 A2993 RMK AO2 SLP134 T01280117 55002
Loading
Personal Weather Stations






























Interactive Weather Map New forecast layout! Learn more

10-Day Weather Forecast

Advertisements
Track Severe Weather on mobile